DAOB/TID METAR and TAF weather

Enter ICAO airport designator
Station Type Date Time Source
DAOB METAR 2021/03/08 12:00 UTC NOAA

DAOB 081200Z 27011KT 9999 BKN020 SCT023 11/06 Q1015


Station Type Date Time Source
DAOB Decoded METAR 2021/03/08 12:00 UTC NOAA

Tiaret, Algeria (DAOB) 35-15N 001-26E 1127M
Mar 08, 2021 - 07:00 AM EST / 2021.03.08 1200 UTC
Wind: from the W (270 degrees) at 13 MPH (11 KT):0
Visibility: greater than 7 mile(s):0
Sky conditions: mostly cloudy
Temperature: 51 F (11 C)
Dew Point: 42 F (6 C)
Relative Humidity: 71%
Pressure (altimeter): 29.97 in. Hg (1015 hPa)
ob: DAOB 081200Z 27011KT 9999 BKN020 SCT023 11/06 Q1015
cycle: 12

Station Type Date Time Source
DAOB TAF 2021/03/08 12:33 UTC NOAA

TAF DAOB 081100Z 0812/0912 28010KT 8000 BKN023 PROB40
TEMPO 0812/0817 4000 RA FEW026CB PROB30
TEMPO 0813/0816 30015G25KT 4000 -TSRA SCT020TCU FEW023CB PROB30
TEMPO 0820/0907 3000 BR BKN015

Example: see airport list